Time;durP1;ratioP1;P1;durP2;ratioP2;P2;SDS_P1;SDS_P2;PMS_P1;PMS_P2;Temp;Humidity;BMP_temperature;BMP_pressure;BME280_temperature;BME280_humidity;BME280_pressure;Samples;Min_cycle;Max_cycle;Signal;HPM_P1;HPM_P2
2024/03/15 00:00:56;;;;;;;33.40;18.30;;;;;;;5.39;72.04;100828.39;107890;1256;59900;-66
2024/03/15 00:03:24;;;;;;;35.20;18.40;;;;;;;5.37;71.87;100828.98;107905;1255;61241;-66
2024/03/15 00:05:52;;;;;;;30.30;18.70;;;;;;;5.35;72.03;100826.27;107974;1255;72457;-66
2024/03/15 00:08:20;;;;;;;28.10;17.90;;;;;;;5.34;72.05;100823.91;107937;1256;72609;-66
2024/03/15 00:10:48;;;;;;;33.70;20.00;;;;;;;5.34;72.22;100823.02;107928;1256;72771;-66
2024/03/15 00:13:15;;;;;;;34.10;19.50;;;;;;;5.36;72.55;100824.42;107840;1261;61138;-66
2024/03/15 00:15:43;;;;;;;32.40;19.30;;;;;;;5.39;72.89;100823.86;107910;1255;61099;-66
2024/03/15 00:18:11;;;;;;;27.50;17.60;;;;;;;5.40;72.97;100820.31;108002;1256;73428;-66
2024/03/15 00:20:39;;;;;;;30.50;17.80;;;;;;;5.38;73.11;100820.65;108087;1256;72635;-66
2024/03/15 00:23:07;;;;;;;26.50;17.50;;;;;;;5.35;72.98;100821.09;107924;1256;72310;-66
2024/03/15 00:25:35;;;;;;;27.20;15.80;;;;;;;5.31;73.01;100819.21;108251;1257;61380;-66
2024/03/15 00:28:03;;;;;;;26.30;15.60;;;;;;;5.28;73.00;100814.83;108015;1255;61064;-66
2024/03/15 00:30:31;;;;;;;32.50;17.60;;;;;;;5.24;73.06;100813.88;108016;1255;74746;-66
2024/03/15 00:32:59;;;;;;;28.20;17.20;;;;;;;5.21;73.24;100815.52;107852;1257;72780;-67
2024/03/15 00:35:26;;;;;;;26.60;18.60;;;;;;;5.18;73.52;100812.90;107984;1257;72791;-67
2024/03/15 00:37:54;;;;;;;31.50;18.70;;;;;;;5.17;73.71;100816.42;107861;1257;61119;-67
2024/03/15 00:40:21;;;;;;;28.80;18.70;;;;;;;5.17;73.87;100816.77;107954;1256;61327;-66
2024/03/15 00:42:49;;;;;;;27.60;18.90;;;;;;;5.16;74.11;100820.36;107886;1256;74471;-67
2024/03/15 00:45:17;;;;;;;28.10;18.20;;;;;;;5.17;74.31;100823.05;107996;1257;72727;-67
2024/03/15 00:47:45;;;;;;;26.10;16.10;;;;;;;5.19;74.46;100820.88;107884;1257;70433;-67
2024/03/15 00:50:13;;;;;;;28.10;17.10;;;;;;;5.17;74.57;100820.89;107878;1259;61115;-67
2024/03/15 00:52:40;;;;;;;26.70;17.40;;;;;;;5.16;74.76;100825.91;107924;1257;61023;-68
2024/03/15 00:55:10;;;;;;;26.30;16.20;;;;;;;5.14;75.31;100828.41;107977;1256;74740;-67
2024/03/15 00:57:38;;;;;;;27.30;17.60;;;;;;;5.13;75.54;100826.79;107862;1257;72720;-66
2024/03/15 01:00:07;;;;;;;31.10;18.70;;;;;;;5.09;75.87;100825.95;108000;1257;71840;-67
2024/03/15 01:02:35;;;;;;;28.60;17.10;;;;;;;5.08;76.36;100821.33;107943;1257;61023;-67
2024/03/15 01:05:05;;;;;;;28.10;18.40;;;;;;;5.07;76.69;100820.44;107921;1255;61171;-66
2024/03/15 01:07:33;;;;;;;25.80;17.20;;;;;;;5.05;77.23;100821.06;108016;1256;73421;-67
2024/03/15 01:10:00;;;;;;;28.50;17.90;;;;;;;5.01;77.89;100817.27;107854;1262;71447;-66
2024/03/15 01:12:28;;;;;;;27.70;18.00;;;;;;;4.97;78.46;100817.92;107886;1257;71773;-67
2024/03/15 01:14:55;;;;;;;28.60;18.30;;;;;;;4.95;79.05;100817.02;108007;1256;61972;-67
2024/03/15 01:17:23;;;;;;;27.20;18.30;;;;;;;4.97;79.70;100819.77;107925;1255;61184;-67
2024/03/15 01:19:50;;;;;;;27.30;17.20;;;;;;;4.97;80.39;100819.90;108125;1257;74738;-66
2024/03/15 01:22:18;;;;;;;28.10;17.60;;;;;;;4.96;80.77;100814.44;107739;1257;72525;-67
2024/03/15 01:24:46;;;;;;;28.60;18.70;;;;;;;4.93;81.20;100816.48;107989;1257;72487;-66
2024/03/15 01:27:13;;;;;;;29.30;18.20;;;;;;;4.92;81.49;100815.97;107912;1257;61091;-66
2024/03/15 01:29:41;;;;;;;24.10;16.80;;;;;;;4.91;82.13;100816.79;107899;1256;61115;-67
2024/03/15 01:32:11;;;;;;;28.80;18.70;;;;;;;4.91;82.58;100814.63;108020;1256;75633;-66
2024/03/15 01:34:39;;;;;;;25.80;17.20;;;;;;;4.92;83.08;100815.55;107843;1257;71439;-66
2024/03/15 01:37:07;;;;;;;27.70;18.20;;;;;;;4.90;83.62;100815.86;107899;1258;72582;-66
2024/03/15 01:39:35;;;;;;;23.70;16.50;;;;;;;4.88;84.12;100817.55;107828;1258;61142;-67
2024/03/15 01:42:02;;;;;;;28.20;18.10;;;;;;;4.86;84.85;100821.73;107954;1256;61146;-67
2024/03/15 01:44:58;;;;;;;24.50;16.90;;;;;;;4.85;85.52;100823.41;108039;1257;73549;-66
2024/03/15 01:47:26;;;;;;;24.50;17.00;;;;;;;4.84;86.27;100823.83;107648;1257;71513;-67
2024/03/15 01:49:55;;;;;;;28.20;18.60;;;;;;;4.81;87.30;100828.09;107946;1257;71086;-67
2024/03/15 01:52:24;;;;;;;27.80;16.70;;;;;;;4.80;88.26;100825.85;107919;1257;61158;-66
2024/03/15 01:54:52;;;;;;;25.20;17.40;;;;;;;4.78;89.27;100829.09;108042;1255;61581;-67
2024/03/15 01:57:19;;;;;;;29.40;18.30;;;;;;;4.76;90.44;100830.55;108097;1257;73332;-67
2024/03/15 01:59:47;;;;;;;25.70;16.70;;;;;;;4.75;91.74;100830.52;107903;1257;73250;-67
2024/03/15 02:02:15;;;;;;;26.40;16.70;;;;;;;4.74;93.02;100832.10;107963;1257;72718;-66
2024/03/15 02:05:04;;;;;;;24.20;17.10;;;;;;;4.72;94.13;100834.11;107880;1257;60124;-66
2024/03/15 02:07:30;;;;;;;24.40;15.90;;;;;;;4.70;95.40;100842.30;107886;1257;61157;-66
2024/03/15 02:09:58;;;;;;;30.00;17.90;;;;;;;4.69;96.75;100840.69;107941;1256;73456;-67
2024/03/15 02:12:26;;;;;;;26.10;17.40;;;;;;;4.68;97.99;100843.83;107943;1257;71612;-67
2024/03/15 02:14:53;;;;;;;27.10;17.90;;;;;;;4.70;98.99;100845.72;108159;1257;71118;-67
2024/03/15 02:17:22;;;;;;;26.50;19.00;;;;;;;4.70;99.87;100846.91;107966;1255;61237;-68
2024/03/15 02:19:50;;;;;;;28.60;17.80;;;;;;;4.73;100.00;100845.88;108110;1257;61137;-66
2024/03/15 02:22:17;;;;;;;23.50;16.90;;;;;;;4.75;100.00;100847.17;107958;1256;74671;-66
2024/03/15 02:24:45;;;;;;;26.70;17.90;;;;;;;4.76;100.00;100852.70;107877;1256;71610;-66
2024/03/15 02:27:13;;;;;;;24.90;16.30;;;;;;;4.76;100.00;100854.25;107866;1256;71438;-67
2024/03/15 02:29:41;;;;;;;27.20;18.70;;;;;;;4.77;100.00;100856.36;107970;1256;61158;-67
2024/03/15 02:32:10;;;;;;;28.80;17.50;;;;;;;4.77;100.00;100855.30;107993;1256;61183;-66
2024/03/15 02:34:38;;;;;;;27.50;17.90;;;;;;;4.77;100.00;100859.09;107918;1254;72265;-66
2024/03/15 02:37:07;;;;;;;25.80;19.00;;;;;;;4.77;100.00;100857.83;107816;1257;71455;-65
2024/03/15 02:39:35;;;;;;;28.50;18.60;;;;;;;4.81;100.00;100861.43;107969;1257;72987;-67
2024/03/15 02:42:06;;;;;;;28.10;18.70;;;;;;;4.86;100.00;100859.17;107947;1257;61280;-65
2024/03/15 02:44:34;;;;;;;26.80;19.00;;;;;;;4.91;100.00;100860.44;107916;1257;61349;-66
2024/03/15 02:47:03;;;;;;;27.30;19.90;;;;;;;4.95;100.00;100861.11;107866;1257;73389;-67
2024/03/15 02:49:31;;;;;;;27.70;18.70;;;;;;;5.01;100.00;100863.16;108133;1256;72093;-67
2024/03/15 02:51:59;;;;;;;28.30;18.90;;;;;;;5.05;100.00;100858.57;107968;1256;72822;-66
2024/03/15 02:54:29;;;;;;;28.40;19.20;;;;;;;5.10;100.00;100860.63;107983;1256;61240;-67
2024/03/15 02:56:57;;;;;;;27.20;20.00;;;;;;;5.16;100.00;100861.23;108021;1254;61196;-66
2024/03/15 02:59:25;;;;;;;28.20;20.40;;;;;;;5.20;100.00;100859.58;107989;1255;74729;-66
2024/03/15 03:01:53;;;;;;;27.90;19.60;;;;;;;5.24;100.00;100861.55;108139;1256;72729;-66
2024/03/15 03:04:20;;;;;;;25.40;19.20;;;;;;;5.27;100.00;100859.52;107887;1258;71392;-66
2024/03/15 03:06:49;;;;;;;27.00;19.40;;;;;;;5.28;100.00;100858.31;108073;1257;61359;-65
2024/03/15 03:09:17;;;;;;;27.60;19.00;;;;;;;5.30;100.00;100861.02;107969;1257;61344;-66
2024/03/15 03:11:45;;;;;;;27.20;19.10;;;;;;;5.33;100.00;100862.34;107912;1256;73418;-65
2024/03/15 03:14:14;;;;;;;29.40;20.20;;;;;;;5.35;100.00;100858.86;107927;1257;71467;-65
2024/03/15 03:16:42;;;;;;;26.50;19.00;;;;;;;5.34;100.00;100862.13;107948;1257;71468;-66
2024/03/15 03:19:10;;;;;;;24.90;18.60;;;;;;;5.33;100.00;100862.55;108021;1254;61234;-66
2024/03/15 03:21:38;;;;;;;27.30;19.20;;;;;;;5.28;100.00;100863.80;108006;1256;61138;-66
2024/03/15 03:24:08;;;;;;;29.20;19.10;;;;;;;5.23;100.00;100865.52;108011;1260;73386;-67
2024/03/15 03:26:36;;;;;;;24.90;17.60;;;;;;;5.18;100.00;100864.60;107948;1257;72783;-66
2024/03/15 03:29:05;;;;;;;23.60;17.80;;;;;;;5.14;100.00;100867.64;107982;1257;71436;-66
2024/03/15 03:31:32;;;;;;;26.50;18.40;;;;;;;5.09;100.00;100870.89;107965;1257;61674;-67
2024/03/15 03:34:00;;;;;;;26.80;18.80;;;;;;;5.05;100.00;100869.86;107999;1254;61135;-67
2024/03/15 03:36:28;;;;;;;26.30;19.40;;;;;;;5.02;100.00;100870.08;107984;1262;73735;-67
2024/03/15 03:38:58;;;;;;;25.50;18.40;;;;;;;5.01;100.00;100875.91;107815;1256;71445;-66
2024/03/15 03:41:25;;;;;;;25.90;18.50;;;;;;;4.97;100.00;100877.76;107977;1257;71219;-67
2024/03/15 03:43:53;;;;;;;28.70;20.30;;;;;;;4.96;100.00;100885.17;107847;1257;61241;-68
2024/03/15 03:46:21;;;;;;;28.30;20.30;;;;;;;4.92;100.00;100882.98;107883;1262;61305;-66
2024/03/15 03:48:49;;;;;;;27.60;19.80;;;;;;;4.91;100.00;100884.31;107868;1262;74622;-67
2024/03/15 03:51:18;;;;;;;26.80;19.70;;;;;;;4.91;100.00;100887.20;107895;1257;72884;-66
2024/03/15 03:53:46;;;;;;;30.00;21.20;;;;;;;4.91;100.00;100884.44;107835;1256;71587;-66
2024/03/15 03:56:15;;;;;;;25.80;20.10;;;;;;;4.93;100.00;100883.20;107938;1257;61202;-66
2024/03/15 03:58:44;;;;;;;29.00;19.40;;;;;;;4.98;100.00;100888.30;107991;1262;61332;-67
2024/03/15 04:01:14;;;;;;;29.00;20.40;;;;;;;5.00;100.00;100887.96;107848;1256;74688;-67
2024/03/15 04:03:48;;;;;;;28.70;20.50;;;;;;;5.00;100.00;100886.05;108007;1257;72501;-66
2024/03/15 04:06:17;;;;;;;;;;;;;;;5.02;100.00;100886.86;107958;1256;71489;-66
2024/03/15 04:08:45;;;;;;;24.00;19.00;;;;;;;5.05;100.00;100886.39;107969;1257;61128;-66
2024/03/15 04:11:12;;;;;;;25.70;19.50;;;;;;;5.06;100.00;100884.56;107979;1257;61218;-66
2024/03/15 04:13:40;;;;;;;28.50;21.10;;;;;;;5.03;100.00;100887.87;107984;1257;73421;-67
2024/03/15 04:16:08;;;;;;;30.20;20.50;;;;;;;5.03;100.00;100887.95;107890;1257;71642;-68
2024/03/15 04:18:36;;;;;;;28.40;20.60;;;;;;;5.01;100.00;100888.37;107997;1254;72885;-67
2024/03/15 04:21:04;;;;;;;32.10;21.50;;;;;;;5.02;100.00;100888.08;108209;1254;59619;-68
2024/03/15 04:23:33;;;;;;;30.80;21.40;;;;;;;5.03;100.00;100889.61;107992;1257;61129;-67
2024/03/15 04:26:01;;;;;;;27.30;20.60;;;;;;;5.07;100.00;100889.44;108048;1260;73374;-67
2024/03/15 04:28:28;;;;;;;27.70;20.00;;;;;;;5.10;100.00;100886.68;108058;1254;71756;-67
2024/03/15 04:30:56;;;;;;;27.70;20.90;;;;;;;5.12;100.00;100890.50;108032;1260;71539;-66
2024/03/15 04:33:24;;;;;;;27.50;19.50;;;;;;;5.08;100.00;100890.52;108057;1254;60948;-67
2024/03/15 04:35:52;;;;;;;30.10;20.40;;;;;;;5.04;100.00;100891.85;107899;1256;61224;-67
2024/03/15 04:38:20;;;;;;;28.70;20.00;;;;;;;5.01;100.00;100895.37;108023;1254;73432;-68
2024/03/15 04:40:47;;;;;;;28.70;20.20;;;;;;;5.00;100.00;100895.41;107967;1254;72733;-66
2024/03/15 04:43:17;;;;;;;26.90;20.30;;;;;;;4.98;100.00;100892.55;107949;1257;71444;-67
2024/03/15 04:45:45;;;;;;;24.90;18.80;;;;;;;5.00;100.00;100897.21;108045;1257;61973;-67
2024/03/15 04:48:12;;;;;;;28.90;20.40;;;;;;;5.00;100.00;100901.73;108048;1257;61121;-66
2024/03/15 04:50:40;;;;;;;27.10;20.30;;;;;;;5.01;100.00;100899.86;107972;1257;73392;-66
2024/03/15 04:53:08;;;;;;;28.30;21.30;;;;;;;5.01;100.00;100901.68;107993;1257;70467;-66
2024/03/15 04:55:35;;;;;;;26.50;20.20;;;;;;;5.00;100.00;100905.08;108017;1257;72660;-67
2024/03/15 04:58:03;;;;;;;29.20;21.30;;;;;;;4.98;100.00;100907.48;107967;1255;61765;-68
2024/03/15 05:00:31;;;;;;;31.30;21.20;;;;;;;4.93;100.00;100911.61;107970;1254;61084;-67
2024/03/15 05:02:59;;;;;;;28.40;21.10;;;;;;;4.90;100.00;100913.27;108057;1254;74723;-67
2024/03/15 05:05:27;;;;;;;27.30;21.10;;;;;;;4.89;100.00;100917.86;108053;1254;71790;-66
2024/03/15 05:07:55;;;;;;;25.90;19.90;;;;;;;4.88;100.00;100923.13;107935;1257;72668;-67
2024/03/15 05:10:24;;;;;;;28.60;21.10;;;;;;;4.88;100.00;100929.48;108022;1260;61138;-68
2024/03/15 05:12:53;;;;;;;30.20;21.20;;;;;;;4.86;100.00;100932.13;107977;1257;62165;-67
2024/03/15 05:15:27;;;;;;;25.90;20.10;;;;;;;4.86;100.00;100932.20;108023;1257;74758;-67
2024/03/15 05:17:58;;;;;;;26.40;20.10;;;;;;;4.86;100.00;100931.67;108038;1257;71875;-67
2024/03/15 05:20:27;;;;;;;28.80;21.50;;;;;;;4.87;100.00;100934.36;107965;1257;71473;-68
2024/03/15 05:22:57;;;;;;;26.40;20.60;;;;;;;4.88;100.00;100937.41;107956;1256;59555;-67
2024/03/15 05:25:31;;;;;;;27.30;20.10;;;;;;;4.90;100.00;100936.92;108034;1255;61134;-67
2024/03/15 05:28:19;;;;;;;27.80;20.30;;;;;;;4.90;100.00;100939.09;107937;1257;73641;-66
2024/03/15 05:30:57;;;;;;;28.10;21.90;;;;;;;4.90;100.00;100944.73;107930;1257;72902;-67
2024/03/15 05:33:27;;;;;;;28.90;21.60;;;;;;;4.90;100.00;100946.86;107997;1260;71330;-67
2024/03/15 05:36:03;;;;;;;28.50;20.30;;;;;;;4.88;100.00;100948.33;107931;1260;61312;-67
2024/03/15 05:38:40;;;;;;;26.40;20.60;;;;;;;4.89;100.00;100956.52;107963;1257;60003;-67
2024/03/15 05:41:16;;;;;;;23.10;18.30;;;;;;;4.93;100.00;100958.55;108027;1258;74659;-67
2024/03/15 05:43:49;;;;;;;27.40;19.40;;;;;;;4.95;100.00;100952.86;107949;1257;71746;-68
2024/03/15 05:46:20;;;;;;;26.00;19.70;;;;;;;4.97;100.00;100949.56;108022;1257;71758;-67
2024/03/15 05:49:03;;;;;;;27.20;20.50;;;;;;;4.99;100.00;100947.55;106527;1257;61256;-67
2024/03/15 05:51:34;;;;;;;26.70;20.90;;;;;;;5.04;100.00;100947.98;108020;1257;62258;-66
2024/03/15 05:54:03;;;;;;;26.00;18.50;;;;;;;5.07;100.00;100950.45;108036;1258;76193;-67
2024/03/15 05:56:34;;;;;;;30.70;22.00;;;;;;;5.10;100.00;100951.70;107973;1257;71776;-66
2024/03/15 05:59:11;;;;;;;28.50;21.20;;;;;;;5.12;100.00;100950.46;107884;1257;71470;-67
2024/03/15 06:01:43;;;;;;;30.50;21.10;;;;;;;5.16;100.00;100950.11;107960;1257;61184;-68
2024/03/15 06:04:20;;;;;;;30.80;21.40;;;;;;;5.22;100.00;100947.82;107998;1257;60391;-66
2024/03/15 06:06:50;;;;;;;30.40;21.90;;;;;;;5.25;100.00;100948.00;108024;1258;74710;-65
2024/03/15 06:09:23;;;;;;;30.30;21.60;;;;;;;5.31;100.00;100947.98;108011;1257;75156;-66
2024/03/15 06:11:56;;;;;;;28.50;21.10;;;;;;;5.37;100.00;100944.42;108020;1257;71442;-68
2024/03/15 06:14:34;;;;;;;29.90;22.40;;;;;;;5.47;100.00;100943.56;107905;1256;61256;-67
2024/03/15 06:17:06;;;;;;;27.80;20.50;;;;;;;5.57;100.00;100936.73;107925;1257;61119;-68
2024/03/15 06:19:38;;;;;;;28.50;20.30;;;;;;;5.65;100.00;100935.40;107917;1257;73425;-66
2024/03/15 06:22:13;;;;;;;29.80;22.10;;;;;;;5.73;100.00;100937.49;107904;1257;71724;-67
2024/03/15 06:24:43;;;;;;;28.50;20.50;;;;;;;5.83;100.00;100941.38;107967;1257;72725;-67
2024/03/15 06:27:16;;;;;;;26.40;19.00;;;;;;;5.95;100.00;100942.59;107979;1256;60981;-66
2024/03/15 06:29:54;;;;;;;33.30;22.80;;;;;;;6.10;100.00;100945.30;108042;1257;61008;-66
2024/03/15 06:32:29;;;;;;;28.00;20.00;;;;;;;6.33;100.00;100939.89;107936;1255;74670;-66
2024/03/15 06:35:17;;;;;;;31.40;22.40;;;;;;;6.45;100.00;100940.58;108004;1258;73692;-66
2024/03/15 06:37:45;;;;;;;30.00;21.10;;;;;;;6.50;100.00;100944.64;107934;1260;72476;-66
2024/03/15 06:40:19;;;;;;;30.70;21.90;;;;;;;6.52;100.00;100943.03;107741;1257;62108;-67
2024/03/15 06:48:22;;;;;;;35.90;24.20;;;;;;;6.65;100.00;100946.22;108019;1254;74269;-67
2024/03/15 06:52:31;;;;;;;29.50;21.80;;;;;;;6.64;100.00;100951.27;108117;1254;72719;-67
2024/03/15 06:53:52;;;;;;;29.40;21.90;;;;;;;6.63;100.00;100954.17;108116;1254;59956;-67
2024/03/15 06:56:22;;;;;;;28.50;21.30;;;;;;;6.64;100.00;100953.15;108108;1254;60859;-67
2024/03/15 06:59:03;;;;;;;30.40;22.10;;;;;;;6.69;100.00;100953.76;108142;1255;76752;-67
2024/03/15 07:01:35;;;;;;;30.60;22.60;;;;;;;6.71;100.00;100955.61;108132;1254;71775;-67
2024/03/15 07:04:16;;;;;;;30.20;21.80;;;;;;;6.77;100.00;100954.19;108081;1256;74837;-67
2024/03/15 07:06:46;;;;;;;30.10;21.00;;;;;;;6.84;100.00;100957.21;108097;1254;62551;-66
2024/03/15 07:09:31;;;;;;;28.20;21.40;;;;;;;6.91;100.00;100956.03;108008;1254;61895;-67
2024/03/15 07:12:34;;;;;;;32.70;21.60;;;;;;;6.96;100.00;100959.84;108009;1256;76838;-66
2024/03/15 07:15:05;;;;;;;31.10;22.30;;;;;;;6.98;100.00;100956.19;108025;1254;76884;-66
2024/03/15 07:17:36;;;;;;;29.70;22.60;;;;;;;7.03;100.00;100957.02;108000;1260;73175;-67
2024/03/15 07:20:07;;;;;;;38.70;24.20;;;;;;;7.10;100.00;100957.73;108034;1256;61426;-67
2024/03/15 07:22:37;;;;;;;33.10;23.20;;;;;;;7.16;100.00;100954.13;108020;1254;60200;-66
2024/03/15 07:25:05;;;;;;;30.00;21.80;;;;;;;7.25;100.00;100954.58;108048;1254;76921;-66
2024/03/15 07:27:34;;;;;;;30.70;22.80;;;;;;;7.39;100.00;100951.16;108123;1254;72386;-67
2024/03/15 07:30:04;;;;;;;32.10;23.30;;;;;;;7.48;100.00;100954.87;108120;1257;73496;-69
2024/03/15 07:32:36;;;;;;;32.60;23.50;;;;;;;7.56;100.00;100958.69;107976;1257;61120;-68
2024/03/15 07:35:07;;;;;;;29.20;21.90;;;;;;;7.59;100.00;100960.77;108028;1257;61137;-67
2024/03/15 07:37:37;;;;;;;31.50;22.70;;;;;;;7.60;100.00;100957.08;107988;1255;74788;-70
2024/03/15 07:40:10;;;;;;;35.40;24.60;;;;;;;7.61;100.00;100959.56;108024;1257;73127;-68
2024/03/15 07:42:38;;;;;;;34.50;24.30;;;;;;;7.54;99.25;100959.12;107965;1260;71887;-66
2024/03/15 07:45:06;;;;;;;34.90;24.40;;;;;;;7.44;98.33;100958.42;107859;1254;61153;-67
2024/03/15 07:47:34;;;;;;;33.40;23.90;;;;;;;7.35;98.18;100955.34;108114;1254;61521;-67
2024/03/15 07:50:02;;;;;;;35.30;23.90;;;;;;;7.29;98.64;100953.67;108071;1254;76994;-67
2024/03/15 07:52:31;;;;;;;34.10;24.30;;;;;;;7.29;99.38;100952.98;108058;1254;73235;-67
2024/03/15 07:54:59;;;;;;;32.60;24.50;;;;;;;7.32;99.94;100956.98;108027;1254;75307;-68
2024/03/15 07:57:28;;;;;;;30.60;23.20;;;;;;;7.34;100.00;100954.38;108011;1257;63895;-68
2024/03/15 07:59:56;;;;;;;34.60;23.30;;;;;;;7.42;100.00;100957.63;108057;1253;62306;-67
2024/03/15 08:02:24;;;;;;;30.60;22.70;;;;;;;7.51;100.00;100950.63;107986;1257;75004;-67
2024/03/15 08:04:52;;;;;;;34.80;25.30;;;;;;;7.57;99.78;100947.14;108036;1257;75035;-66
2024/03/15 08:07:20;;;;;;;34.50;25.10;;;;;;;7.57;98.52;100948.61;107958;1260;73201;-66
2024/03/15 08:09:48;;;;;;;32.80;23.80;;;;;;;7.56;97.80;100948.88;107882;1257;61349;-66
2024/03/15 08:12:16;;;;;;;35.30;25.10;;;;;;;7.56;97.66;100950.95;107935;1257;61152;-67
2024/03/15 08:14:44;;;;;;;37.20;25.70;;;;;;;7.57;97.73;100948.70;107997;1257;74747;-67
2024/03/15 08:17:14;;;;;;;36.40;25.40;;;;;;;7.57;97.68;100948.86;108005;1257;72411;-67
2024/03/15 08:19:41;;;;;;;34.10;24.90;;;;;;;7.61;98.02;100945.57;107963;1257;73178;-67
2024/03/15 08:22:09;;;;;;;35.10;24.80;;;;;;;7.70;98.34;100941.02;107964;1257;61211;-67
2024/03/15 08:24:37;;;;;;;36.30;26.40;;;;;;;7.80;97.43;100941.89;108034;1260;62245;-67
2024/03/15 08:27:09;;;;;;;36.00;25.50;;;;;;;7.84;96.31;100941.13;108043;1253;75329;-67
2024/03/15 08:29:39;;;;;;;36.50;25.80;;;;;;;7.84;95.53;100945.50;107903;1254;72527;-66
2024/03/15 08:32:07;;;;;;;33.20;24.30;;;;;;;7.85;95.34;100948.59;107999;1260;71973;-67
2024/03/15 08:34:36;;;;;;;34.70;25.60;;;;;;;7.86;94.88;100947.17;107990;1254;62639;-67
2024/03/15 08:37:07;;;;;;;36.70;25.20;;;;;;;7.85;94.55;100947.12;107905;1258;61179;-68
2024/03/15 08:39:35;;;;;;;36.70;27.00;;;;;;;7.84;94.61;100948.00;108044;1255;73502;-67
2024/03/15 08:42:04;;;;;;;35.50;25.00;;;;;;;7.86;94.77;100946.16;108009;1258;75058;-67
2024/03/15 08:44:32;;;;;;;38.10;27.00;;;;;;;7.91;94.66;100942.37;107984;1254;73878;-66
2024/03/15 08:47:03;;;;;;;35.00;25.30;;;;;;;7.97;94.57;100943.15;108046;1254;63055;-66
2024/03/15 08:49:31;;;;;;;35.50;25.90;;;;;;;8.12;94.81;100943.50;108201;1256;62431;-67
2024/03/15 08:51:59;;;;;;;36.30;27.10;;;;;;;8.24;94.25;100940.16;108014;1254;76106;-66
2024/03/15 08:54:27;;;;;;;33.20;26.10;;;;;;;8.33;93.35;100938.33;108051;1258;71501;-68
2024/03/15 08:56:56;;;;;;;33.90;25.40;;;;;;;8.41;91.94;100938.75;107930;1257;71536;-68
2024/03/15 08:59:24;;;;;;;36.00;26.00;;;;;;;8.41;90.40;100940.09;107852;1257;61381;-68
2024/03/15 09:01:53;;;;;;;35.80;26.40;;;;;;;8.32;89.22;100937.93;107909;1257;62198;-67
2024/03/15 09:04:24;;;;;;;38.70;27.70;;;;;;;8.18;88.23;100936.99;107938;1256;76733;-68
2024/03/15 09:06:52;;;;;;;37.50;28.30;;;;;;;8.07;88.60;100936.45;108045;1257;74012;-66
2024/03/15 09:09:31;;;;;;;35.00;25.70;;;;;;;7.99;89.38;100936.65;107903;1257;74802;-68
2024/03/15 09:12:00;;;;;;;36.50;26.90;;;;;;;7.98;90.29;100937.58;107999;1258;62440;-68
2024/03/15 09:14:29;;;;;;;35.80;26.70;;;;;;;7.98;90.40;100934.02;107970;1260;61131;-68
2024/03/15 09:16:58;;;;;;;41.00;29.50;;;;;;;7.92;90.13;100931.88;107972;1257;76053;-66
2024/03/15 09:19:26;;;;;;;38.20;27.50;;;;;;;7.89;90.35;100932.09;107925;1258;73107;-68
2024/03/15 09:21:59;;;;;;;32.70;25.30;;;;;;;7.91;90.77;100932.67;107973;1257;73006;-67
2024/03/15 09:24:31;;;;;;;38.50;28.10;;;;;;;7.97;91.56;100933.79;107978;1254;62317;-67
2024/03/15 09:26:59;;;;;;;37.20;26.10;;;;;;;8.09;91.97;100934.48;107917;1255;61218;-67
2024/03/15 09:29:27;;;;;;;34.30;25.60;;;;;;;8.18;91.37;100934.65;107887;1257;74483;-67
2024/03/15 09:32:00;;;;;;;34.10;25.60;;;;;;;8.26;90.48;100932.52;107938;1257;75113;-66
2024/03/15 09:34:49;;;;;;;38.10;27.70;;;;;;;8.30;89.39;100936.25;107961;1257;74981;-67
2024/03/15 09:37:19;;;;;;;38.20;27.80;;;;;;;8.38;89.35;100935.05;107826;1257;63015;-67
2024/03/15 09:39:52;;;;;;;38.90;27.60;;;;;;;8.45;88.46;100930.96;107851;1257;61287;-67
2024/03/15 09:42:20;;;;;;;38.40;27.10;;;;;;;8.47;87.66;100928.77;107858;1256;75179;-66
2024/03/15 09:44:48;;;;;;;36.20;26.60;;;;;;;8.44;87.01;100931.35;107865;1257;73021;-67
2024/03/15 09:47:16;;;;;;;37.50;28.40;;;;;;;8.44;86.82;100932.42;107903;1256;75217;-66
2024/03/15 09:49:44;;;;;;;35.20;26.50;;;;;;;8.43;86.33;100934.70;107940;1256;61131;-67
2024/03/15 09:52:15;;;;;;;39.60;26.60;;;;;;;8.41;86.19;100935.76;107850;1254;61234;-66
2024/03/15 09:54:43;;;;;;;37.50;27.20;;;;;;;8.37;85.61;100931.83;108013;1254;75071;-66
2024/03/15 09:57:11;;;;;;;37.00;27.80;;;;;;;8.40;86.10;100931.27;108091;1259;75070;-67
2024/03/15 09:59:41;;;;;;;37.60;27.00;;;;;;;8.52;86.76;100925.55;107834;1257;72547;-67
2024/03/15 10:02:15;;;;;;;36.70;26.40;;;;;;;8.65;86.64;100924.93;107920;1256;62435;-66
2024/03/15 10:04:44;;;;;;;38.00;28.40;;;;;;;8.77;85.52;100924.86;108012;1254;61199;-66
2024/03/15 10:07:13;;;;;;;37.40;27.10;;;;;;;8.81;84.28;100929.04;107918;1256;75184;-68
2024/03/15 10:09:41;;;;;;;34.60;26.00;;;;;;;8.83;83.66;100927.33;107992;1257;73637;-67
2024/03/15 10:12:09;;;;;;;34.40;25.80;;;;;;;8.85;82.93;100932.05;107993;1256;74893;-66
2024/03/15 10:14:37;;;;;;;34.00;26.00;;;;;;;8.82;82.06;100931.61;107872;1257;63017;-67
2024/03/15 10:17:07;;;;;;;34.90;26.90;;;;;;;8.78;81.65;100931.38;107999;1254;62161;-69
2024/03/15 10:19:36;;;;;;;34.90;26.90;;;;;;;8.75;81.92;100931.09;101736;1260;10001921;-67
2024/03/15 10:22:07;;;;;;;31.00;24.00;;;;;;;8.78;82.32;100928.30;85387;1254;10002033;-68
2024/03/15 10:24:39;;;;;;;35.00;26.50;;;;;;;8.79;81.75;100924.75;108519;1254;73855;-67
2024/03/15 10:27:14;;;;;;;33.90;25.00;;;;;;;8.75;81.51;100921.27;107920;1257;73408;-67
2024/03/15 10:29:47;;;;;;;34.60;26.00;;;;;;;8.77;81.93;100920.70;107783;1254;61291;-67
2024/03/15 10:32:18;;;;;;;36.10;26.50;;;;;;;8.80;81.86;100924.06;107900;1254;62330;-68
2024/03/15 10:34:50;;;;;;;35.90;26.00;;;;;;;8.84;81.68;100921.64;107848;1253;73630;-68
2024/03/15 10:37:22;;;;;;;35.10;26.10;;;;;;;8.85;81.34;100920.44;107945;1254;75281;-68
2024/03/15 10:39:54;;;;;;;32.10;24.50;;;;;;;8.86;81.57;100920.46;107962;1254;75291;-67
2024/03/15 10:42:38;;;;;;;33.40;24.70;;;;;;;8.89;81.86;100918.98;107804;1254;61318;-67
2024/03/15 10:45:21;;;;;;;37.40;27.40;;;;;;;8.90;81.66;100916.77;107915;1254;61087;-67
2024/03/15 10:47:59;;;;;;;34.90;26.30;;;;;;;8.87;80.75;100917.38;107967;1254;76750;-66
2024/03/15 10:50:39;;;;;;;32.60;25.00;;;;;;;8.83;80.59;100917.04;107862;1257;73578;-66
2024/03/15 10:53:19;;;;;;;35.80;25.50;;;;;;;8.84;81.06;100916.36;107807;1254;74259;-67
2024/03/15 10:56:00;;;;;;;34.20;26.10;;;;;;;8.86;81.09;100915.29;107703;1254;61886;-68
2024/03/15 10:58:46;;;;;;;34.30;25.20;;;;;;;8.95;81.12;100913.64;108011;1253;61084;-67
2024/03/15 11:01:28;;;;;;;32.90;24.40;;;;;;;9.04;81.35;100907.27;108202;1254;73985;-67
2024/03/15 11:04:11;;;;;;;35.10;26.40;;;;;;;9.14;81.48;100908.95;107687;1257;71462;-67
2024/03/15 11:06:57;;;;;;;37.70;27.50;;;;;;;9.24;80.95;100907.36;108205;1253;74197;-67
2024/03/15 11:09:33;;;;;;;35.30;26.00;;;;;;;9.31;80.49;100907.01;108509;1256;61167;-66
2024/03/15 11:12:11;;;;;;;36.80;27.60;;;;;;;9.34;79.90;100906.84;107584;1254;61215;-66
2024/03/15 11:14:51;;;;;;;33.50;26.10;;;;;;;9.33;79.19;100906.24;107767;1254;75291;-66
2024/03/15 11:17:28;;;;;;;36.40;26.00;;;;;;;9.32;78.96;100908.00;107850;1257;71598;-67
2024/03/15 11:20:05;;;;;;;35.20;26.00;;;;;;;9.30;78.68;100907.73;107729;1254;73532;-67
2024/03/15 11:22:36;;;;;;;34.80;26.10;;;;;;;9.23;78.82;100910.38;108093;1253;63809;-67
2024/03/15 11:25:09;;;;;;;37.50;25.80;;;;;;;9.18;79.05;100908.06;107599;1254;61245;-67
2024/03/15 11:27:59;;;;;;;35.80;26.10;;;;;;;9.14;79.46;100905.42;107643;1253;75584;-67